Time;durP1;ratioP1;P1;durP2;ratioP2;P2;SDS_P1;SDS_P2;PMS_P1;PMS_P2;Temp;Humidity;BMP_temperature;BMP_pressure;BME280_temperature;BME280_humidity;BME280_pressure;Samples;Min_cycle;Max_cycle;Signal;HPM_P1;HPM_P2
2023/04/27 00:01:09;;;;;;;10.13;9.23;;;8.40;99.90;;;;;;5045421;28;20223;-82
2023/04/27 00:03:36;;;;;;;10.30;9.40;;;8.30;99.90;;;;;;5044575;28;20401;-78
2023/04/27 00:06:03;;;;;;;9.97;9.07;;;8.30;99.90;;;;;;5066940;28;20233;-78
2023/04/27 00:08:30;;;;;;;11.00;10.10;;;8.30;99.90;;;;;;5055073;28;20203;-77
2023/04/27 00:10:59;;;;;;;11.10;10.00;;;8.20;99.90;;;;;;5063384;28;20608;-79
2023/04/27 00:13:26;;;;;;;10.37;9.57;;;8.20;99.90;;;;;;5044539;28;20230;-79
2023/04/27 00:15:54;;;;;;;10.57;9.77;;;8.20;99.90;;;;;;5062575;28;20241;-78
2023/04/27 00:18:21;;;;;;;11.10;10.10;;;8.20;99.90;;;;;;5044887;28;20195;-79
2023/04/27 00:20:48;;;;;;;11.23;10.23;;;8.20;99.90;;;;;;5056255;28;20248;-77
2023/04/27 00:23:15;;;;;;;11.67;10.57;;;8.20;99.90;;;;;;5030237;28;20725;-78
2023/04/27 00:25:41;;;;;;;11.43;10.53;;;8.20;99.90;;;;;;5037889;28;20558;-78
2023/04/27 00:28:09;;;;;;;10.17;9.30;;;8.20;99.90;;;;;;5037824;28;20283;-77
2023/04/27 00:30:36;;;;;;;10.40;9.60;;;8.20;99.90;;;;;;5038146;28;20195;-77
2023/04/27 00:33:03;;;;;;;10.33;9.43;;;8.20;99.90;;;;;;5037765;28;20214;-78
2023/04/27 00:35:30;;;;;;;10.63;9.70;;;8.20;99.90;;;;;;5037619;28;20234;-78
2023/04/27 00:37:58;;;;;;;10.50;9.63;;;8.10;99.90;;;;;;5041788;28;20222;-77
2023/04/27 00:40:25;;;;;;;11.10;9.60;;;8.10;99.90;;;;;;5037959;28;20281;-78
2023/04/27 00:43:00;;;;;;;9.87;9.07;;;8.10;99.90;;;;;;5037242;28;20225;-78
2023/04/27 00:45:28;;;;;;;10.43;9.50;;;8.00;99.90;;;;;;5037965;28;20650;-78
2023/04/27 00:47:55;;;;;;;10.30;9.50;;;8.00;99.90;;;;;;5055344;28;20269;-78
2023/04/27 00:50:31;;;;;;;10.97;10.00;;;8.00;99.90;;;;;;5038268;28;20226;-78
2023/04/27 00:52:58;;;;;;;10.67;9.77;;;8.00;99.90;;;;;;5038055;28;20202;-78
2023/04/27 00:55:24;;;;;;;10.83;9.73;;;7.90;99.90;;;;;;5055301;28;20202;-77
2023/04/27 00:57:51;;;;;;;10.63;9.60;;;7.90;99.90;;;;;;5037850;28;20573;-78
2023/04/27 01:00:18;;;;;;;10.03;9.20;;;7.90;99.90;;;;;;5037407;28;20245;-78
2023/04/27 01:02:47;;;;;;;10.70;9.70;;;7.90;99.90;;;;;;5037227;28;20242;-78
2023/04/27 01:05:17;;;;;;;10.33;9.53;;;7.90;99.90;;;;;;5047419;28;20205;-78
2023/04/27 01:07:46;;;;;;;9.93;9.13;;;7.90;99.90;;;;;;5033529;28;20259;-78
2023/04/27 01:10:13;;;;;;;10.20;9.43;;;7.90;99.90;;;;;;5037146;28;20187;-77
2023/04/27 01:12:41;;;;;;;10.50;9.63;;;7.90;99.90;;;;;;5037130;28;20198;-78
2023/04/27 01:15:10;;;;;;;10.50;9.60;;;7.90;99.90;;;;;;5036846;28;20722;-78
2023/04/27 01:17:39;;;;;;;10.60;9.60;;;7.80;99.90;;;;;;5037181;28;20227;-77
2023/04/27 01:20:09;;;;;;;10.53;9.53;;;7.80;99.90;;;;;;5036626;28;20215;-79
2023/04/27 01:22:36;;;;;;;9.67;8.93;;;7.80;99.90;;;;;;5048527;28;20202;-78
2023/04/27 01:25:06;;;;;;;10.17;9.30;;;7.80;99.90;;;;;;5035620;28;20283;-78
2023/04/27 01:27:33;;;;;;;10.90;9.80;;;7.80;99.90;;;;;;5036722;28;20276;-78
2023/04/27 01:30:00;;;;;;;10.10;9.20;;;7.80;99.90;;;;;;5036518;28;20234;-78
2023/04/27 01:32:27;;;;;;;10.80;9.90;;;7.80;99.90;;;;;;5055601;28;20195;-78
2023/04/27 01:34:54;;;;;;;15.23;10.03;;;7.80;99.90;;;;;;5054446;28;20196;-78
2023/04/27 01:37:21;;;;;;;10.87;9.87;;;7.80;99.90;;;;;;5036006;28;20273;-78
2023/04/27 01:39:47;;;;;;;9.87;9.07;;;7.80;99.90;;;;;;5037113;28;20274;-77
2023/04/27 01:42:15;;;;;;;10.13;9.27;;;7.80;99.90;;;;;;5036765;28;20249;-77
2023/04/27 01:44:42;;;;;;;11.20;9.20;;;7.80;99.90;;;;;;5054294;28;20195;-78
2023/04/27 01:47:09;;;;;;;10.83;9.83;;;7.70;99.90;;;;;;5054340;28;20237;-78
2023/04/27 01:49:36;;;;;;;10.43;9.50;;;7.70;99.90;;;;;;5053655;28;20218;-78
2023/04/27 01:52:03;;;;;;;10.80;9.90;;;7.70;99.90;;;;;;5035986;28;20203;-78
2023/04/27 01:54:30;;;;;;;11.90;10.80;;;7.60;99.90;;;;;;5035777;28;20203;-78
2023/04/27 01:56:57;;;;;;;11.50;10.57;;;7.60;99.90;;;;;;5054137;28;20226;-78
2023/04/27 01:59:26;;;;;;;10.60;9.70;;;7.60;99.90;;;;;;5036531;28;20654;-78
2023/04/27 02:01:52;;;;;;;11.37;10.37;;;7.60;99.90;;;;;;5035988;28;20223;-78
2023/04/27 02:04:19;;;;;;;10.30;9.50;;;7.60;99.90;;;;;;5035241;28;20194;-78
2023/04/27 02:06:46;;;;;;;11.50;10.57;;;7.60;99.90;;;;;;5040516;28;20292;-78
2023/04/27 02:09:13;;;;;;;11.90;10.80;;;7.50;99.90;;;;;;5034763;28;20195;-77
2023/04/27 02:11:40;;;;;;;10.80;9.87;;;7.60;99.90;;;;;;5036247;28;20199;-77
2023/04/27 02:14:07;;;;;;;10.93;10.03;;;7.60;99.90;;;;;;5036006;28;20210;-78
2023/04/27 02:16:35;;;;;;;10.43;9.73;;;7.50;99.90;;;;;;5035637;28;20219;-78
2023/04/27 02:19:03;;;;;;;10.00;9.30;;;7.50;99.90;;;;;;5035468;28;20213;-78
2023/04/27 02:21:29;;;;;;;10.60;9.80;;;7.50;99.90;;;;;;5036362;28;20229;-78
2023/04/27 02:23:56;;;;;;;9.77;8.90;;;7.40;99.90;;;;;;5027629;28;20195;-77
2023/04/27 02:26:28;;;;;;;10.17;9.23;;;7.40;99.90;;;;;;5041451;28;20268;-78
2023/04/27 02:28:56;;;;;;;10.57;9.67;;;7.40;99.90;;;;;;5035788;28;20256;-78
2023/04/27 02:31:23;;;;;;;10.80;9.70;;;7.40;99.90;;;;;;5029322;28;20216;-78
2023/04/27 02:33:51;;;;;;;11.23;10.23;;;7.30;99.90;;;;;;5053797;28;20724;-77
2023/04/27 02:36:18;;;;;;;11.10;10.10;;;7.30;99.90;;;;;;5036158;28;20229;-78
2023/04/27 02:38:45;;;;;;;11.70;10.53;;;7.20;99.90;;;;;;5036877;28;20232;-78
2023/04/27 02:41:12;;;;;;;11.83;10.83;;;7.20;99.90;;;;;;5036320;28;20219;-82
2023/04/27 02:43:38;;;;;;;11.93;10.93;;;7.20;99.90;;;;;;5037262;28;20206;-78
2023/04/27 02:46:06;;;;;;;11.97;10.77;;;7.20;99.90;;;;;;5035809;28;20301;-78
2023/04/27 02:48:33;;;;;;;12.30;11.10;;;7.20;99.90;;;;;;5028222;28;20203;-78
2023/04/27 02:51:03;;;;;;;10.67;9.87;;;7.30;99.90;;;;;;5021861;28;20191;-77
2023/04/27 02:53:30;;;;;;;11.03;10.03;;;7.20;99.90;;;;;;5031874;28;20206;-80
2023/04/27 02:55:57;;;;;;;10.57;9.77;;;7.20;99.90;;;;;;5066576;28;20207;-80
2023/04/27 02:58:24;;;;;;;11.13;10.13;;;7.20;99.90;;;;;;5040823;28;20195;-79
2023/04/27 03:00:54;;;;;;;11.77;10.57;;;7.20;99.90;;;;;;5036950;28;20271;-80
2023/04/27 03:03:21;;;;;;;10.73;9.83;;;7.20;99.90;;;;;;5029435;28;20202;-80
2023/04/27 03:05:48;;;;;;;10.77;9.80;;;7.20;99.90;;;;;;5044725;28;20217;-80
2023/04/27 03:08:16;;;;;;;12.17;10.20;;;7.20;99.90;;;;;;5055969;28;20202;-80
2023/04/27 03:10:43;;;;;;;10.50;9.63;;;7.20;99.90;;;;;;5037222;28;20191;-79
2023/04/27 03:13:10;;;;;;;10.43;9.53;;;7.20;99.90;;;;;;5056900;28;20588;-80
2023/04/27 03:15:37;;;;;;;10.37;9.57;;;7.20;99.90;;;;;;5040130;28;20589;-80
2023/04/27 03:18:04;;;;;;;11.00;9.93;;;7.20;99.90;;;;;;5036862;28;20194;-81
2023/04/27 03:20:31;;;;;;;11.33;10.13;;;7.20;99.90;;;;;;5058790;28;20225;-82
2023/04/27 03:22:58;;;;;;;11.13;10.20;;;7.20;99.90;;;;;;5068338;28;20214;-80
2023/04/27 03:25:26;;;;;;;11.43;10.37;;;7.20;99.90;;;;;;5038045;28;20254;-81
2023/04/27 03:27:53;;;;;;;11.30;10.40;;;7.20;99.90;;;;;;5037776;28;20604;-81
2023/04/27 03:30:23;;;;;;;12.07;10.70;;;7.20;99.90;;;;;;5037970;28;20586;-82
2023/04/27 03:32:49;;;;;;;11.53;10.50;;;7.20;99.90;;;;;;5032166;28;20838;-82
2023/04/27 03:35:16;;;;;;;11.03;10.03;;;7.30;99.90;;;;;;5059354;28;20193;-83
2023/04/27 03:37:45;;;;;;;11.07;10.17;;;7.30;99.90;;;;;;5031999;28;20235;-81
2023/04/27 03:40:14;;;;;;;11.60;10.03;;;7.30;99.90;;;;;;5029441;28;20604;-81
2023/04/27 03:42:42;;;;;;;11.43;10.20;;;7.30;99.90;;;;;;5031745;28;20223;-81
2023/04/27 03:45:11;;;;;;;11.77;10.63;;;7.30;99.90;;;;;;5037301;28;20203;-82
2023/04/27 03:47:38;;;;;;;11.73;10.63;;;7.30;99.90;;;;;;5036945;28;20227;-82
2023/04/27 03:50:06;;;;;;;12.33;11.33;;;7.30;99.90;;;;;;5039506;28;20202;-81
2023/04/27 03:52:32;;;;;;;12.57;11.40;;;7.30;99.90;;;;;;5036707;28;20204;-82
2023/04/27 03:54:59;;;;;;;12.17;11.03;;;7.30;99.90;;;;;;5038326;28;20195;-81
2023/04/27 03:57:26;;;;;;;11.50;10.60;;;7.30;99.90;;;;;;5037773;28;20237;-81
2023/04/27 03:59:55;;;;;;;11.93;11.00;;;7.30;99.90;;;;;;5034398;28;20206;-81
2023/04/27 04:02:23;;;;;;;11.47;10.60;;;7.30;99.90;;;;;;5036710;28;20211;-81
2023/04/27 04:04:49;;;;;;;11.83;10.83;;;7.30;99.90;;;;;;5048805;28;20198;-82
2023/04/27 04:07:17;;;;;;;11.70;10.80;;;7.30;99.90;;;;;;5036128;28;20223;-81
2023/04/27 04:09:45;;;;;;;12.90;11.70;;;7.30;99.90;;;;;;5037108;28;20211;-81
2023/04/27 04:12:12;;;;;;;12.40;11.30;;;7.30;99.90;;;;;;5034199;28;20203;-81
2023/04/27 04:14:40;;;;;;;11.93;10.97;;;7.40;99.90;;;;;;5034868;28;20253;-81
2023/04/27 04:17:10;;;;;;;12.33;11.33;;;7.40;99.90;;;;;;5036844;28;20223;-81
2023/04/27 04:19:37;;;;;;;14.33;11.33;;;7.40;99.90;;;;;;5036617;28;20206;-81
2023/04/27 04:22:04;;;;;;;11.77;10.67;;;7.40;99.90;;;;;;5036999;28;20239;-78
2023/04/27 04:24:31;;;;;;;11.60;10.63;;;7.40;99.90;;;;;;5038004;28;20249;-78
2023/04/27 04:26:58;;;;;;;11.77;10.80;;;7.40;99.90;;;;;;5037995;28;20226;-78
2023/04/27 04:29:26;;;;;;;11.20;10.30;;;7.40;99.90;;;;;;5047908;28;20637;-78
2023/04/27 04:31:52;;;;;;;11.57;10.67;;;7.40;99.90;;;;;;5037495;28;20210;-77
2023/04/27 04:34:21;;;;;;;13.10;11.90;;;7.40;99.90;;;;;;5061009;28;20675;-78
2023/04/27 04:36:50;;;;;;;11.57;10.77;;;7.50;99.90;;;;;;5048219;28;20258;-79
2023/04/27 04:39:19;;;;;;;11.53;10.63;;;7.50;99.90;;;;;;5039578;28;20632;-78
2023/04/27 04:41:47;;;;;;;11.97;10.97;;;7.50;99.90;;;;;;5037873;28;20291;-77
2023/04/27 04:44:15;;;;;;;11.67;10.63;;;7.50;99.90;;;;;;5038462;28;20227;-78
2023/04/27 04:46:42;;;;;;;12.47;11.37;;;7.50;99.90;;;;;;5030658;28;20234;-79
2023/04/27 04:49:09;;;;;;;12.43;11.43;;;7.60;99.90;;;;;;5042333;28;20211;-78
2023/04/27 04:51:42;;;;;;;12.67;11.67;;;7.60;99.90;;;;;;5038046;28;20285;-78
2023/04/27 04:54:09;;;;;;;11.73;10.80;;;7.60;99.90;;;;;;5036834;28;20207;-78
2023/04/27 04:56:36;;;;;;;12.43;11.33;;;7.60;99.90;;;;;;5036655;28;20233;-78
2023/04/27 04:59:03;;;;;;;12.37;11.40;;;7.70;99.90;;;;;;5037537;28;20286;-79
2023/04/27 05:01:32;;;;;;;12.00;11.10;;;7.70;99.90;;;;;;5036855;28;20215;-78
2023/04/27 05:03:59;;;;;;;11.63;10.73;;;7.80;99.90;;;;;;5036310;28;20206;-78
2023/04/27 05:06:26;;;;;;;11.40;10.60;;;7.90;99.90;;;;;;5054708;28;20925;-77
2023/04/27 05:08:54;;;;;;;12.07;11.20;;;8.00;99.90;;;;;;5054823;28;20206;-77
2023/04/27 05:11:22;;;;;;;12.40;11.50;;;8.10;99.90;;;;;;5036514;28;20214;-79
2023/04/27 05:13:48;;;;;;;12.77;11.67;;;8.10;99.90;;;;;;5054614;28;20204;-78
2023/04/27 05:16:15;;;;;;;12.60;11.60;;;8.20;99.90;;;;;;5036774;28;20223;-78
2023/04/27 05:18:42;;;;;;;13.13;12.03;;;8.40;99.90;;;;;;5041891;28;20203;-78
2023/04/27 05:21:14;;;;;;;12.80;11.90;;;8.50;99.90;;;;;;5037624;28;20226;-78
2023/04/27 05:23:40;;;;;;;12.93;11.97;;;8.60;99.90;;;;;;5053611;28;20616;-78
2023/04/27 05:26:13;;;;;;;12.53;11.63;;;8.70;99.90;;;;;;5055544;28;20211;-77
2023/04/27 05:28:40;;;;;;;13.10;12.10;;;8.90;99.90;;;;;;5036221;28;20195;-78
2023/04/27 05:31:07;;;;;;;13.10;12.10;;;9.00;99.90;;;;;;5036427;28;20644;-78
2023/04/27 05:33:34;;;;;;;13.53;12.13;;;9.10;99.90;;;;;;5037497;28;20205;-78
2023/04/27 05:36:02;;;;;;;12.37;11.37;;;9.20;99.90;;;;;;5041155;28;20725;-79
2023/04/27 05:38:29;;;;;;;12.17;11.37;;;9.40;99.90;;;;;;5054535;28;20274;-78
2023/04/27 05:40:56;;;;;;;12.00;11.00;;;9.60;99.90;;;;;;5054643;28;20241;-78
2023/04/27 05:43:24;;;;;;;12.03;11.13;;;9.70;99.90;;;;;;5037288;28;20206;-77
2023/04/27 05:45:51;;;;;;;12.50;11.43;;;9.90;99.90;;;;;;5036249;28;20214;-79
2023/04/27 05:48:19;;;;;;;12.80;11.90;;;10.10;99.90;;;;;;5057484;28;20218;-79
2023/04/27 05:50:45;;;;;;;12.40;11.50;;;10.20;99.90;;;;;;5061504;28;20221;-79
2023/04/27 05:53:12;;;;;;;12.73;11.73;;;10.20;99.90;;;;;;5040699;28;20200;-79
2023/04/27 05:55:39;;;;;;;12.57;11.47;;;10.40;99.90;;;;;;5055938;28;20214;-78
2023/04/27 05:58:06;;;;;;;12.27;11.17;;;10.50;99.90;;;;;;5054258;28;20573;-78
2023/04/27 06:00:35;;;;;;;12.37;11.30;;;10.70;99.90;;;;;;5056540;28;20197;-79
2023/04/27 06:03:02;;;;;;;11.50;10.70;;;11.10;99.90;;;;;;5042270;28;20224;-80
2023/04/27 06:05:29;;;;;;;11.80;10.80;;;11.30;99.90;;;;;;5041910;28;20194;-79
2023/04/27 06:07:56;;;;;;;9.50;8.70;;;11.40;99.90;;;;;;5040879;28;20267;-80
2023/04/27 06:10:23;;;;;;;10.70;7.37;;;11.50;99.90;;;;;;5038306;28;20202;-81
2023/04/27 06:12:50;;;;;;;8.27;7.10;;;11.40;99.90;;;;;;5052979;28;20246;-81
2023/04/27 06:15:16;;;;;;;8.07;7.10;;;11.50;99.90;;;;;;5041620;28;20187;-82
2023/04/27 06:17:45;;;;;;;8.43;6.80;;;11.50;99.90;;;;;;5058715;28;20215;-79
2023/04/27 06:20:12;;;;;;;7.88;5.60;;;11.60;99.90;;;;;;5057969;28;20442;-79
2023/04/27 06:22:39;;;;;;;9.60;5.83;;;11.80;99.90;;;;;;5058136;28;20214;-81
2023/04/27 06:25:06;;;;;;;6.93;5.80;;;11.70;99.90;;;;;;5059060;28;20203;-81
2023/04/27 06:27:33;;;;;;;8.90;8.00;;;11.70;99.90;;;;;;5055662;28;20867;-80
2023/04/27 06:30:00;;;;;;;8.60;7.60;;;11.60;99.90;;;;;;5034750;28;20223;-81
2023/04/27 06:32:27;;;;;;;10.37;9.43;;;11.60;99.90;;;;;;5046760;28;20286;-82
2023/04/27 06:34:55;;;;;;;9.83;8.87;;;11.60;99.90;;;;;;5044963;28;20183;-80
2023/04/27 06:37:22;;;;;;;7.73;5.07;;;11.80;99.90;;;;;;5040851;28;20234;-81
2023/04/27 06:39:49;;;;;;;8.73;7.87;;;11.90;99.90;;;;;;5058992;28;20231;-80
2023/04/27 06:42:16;;;;;;;8.80;8.10;;;11.90;99.90;;;;;;5058175;28;20219;-81
2023/04/27 06:44:43;;;;;;;7.37;6.67;;;11.90;99.90;;;;;;5037577;28;20204;-81
2023/04/27 06:47:10;;;;;;;6.53;5.93;;;11.90;99.90;;;;;;5033981;28;20604;-82
2023/04/27 06:49:36;;;;;;;7.40;6.33;;;11.90;99.90;;;;;;5023595;28;20195;-80
2023/04/27 06:52:05;;;;;;;7.03;5.00;;;12.00;99.90;;;;;;5031676;28;20195;-81
2023/04/27 06:54:31;;;;;;;7.70;5.10;;;12.10;99.90;;;;;;5054868;28;20199;-81
2023/04/27 06:56:58;;;;;;;7.97;5.27;;;12.20;99.90;;;;;;5052333;28;20220;-80
2023/04/27 06:59:26;;;;;;;7.87;5.73;;;12.40;99.90;;;;;;5059195;28;20589;-81
2023/04/27 07:01:53;;;;;;;9.90;5.30;;;12.40;99.90;;;;;;5058773;28;20230;-81
2023/04/27 07:04:19;;;;;;;6.63;5.33;;;12.60;99.90;;;;;;5058615;28;20199;-80
2023/04/27 07:06:46;;;;;;;11.15;5.68;;;12.70;99.90;;;;;;5061511;28;20835;-80
2023/04/27 07:09:14;;;;;;;6.50;4.80;;;12.90;99.90;;;;;;5041476;28;20294;-81
2023/04/27 07:11:41;;;;;;;6.57;4.87;;;13.20;99.90;;;;;;5040740;28;20194;-81
2023/04/27 07:14:08;;;;;;;7.03;5.07;;;13.30;99.90;;;;;;5041536;28;20454;-82
2023/04/27 07:16:35;;;;;;;8.17;5.10;;;13.50;99.90;;;;;;5033111;28;20278;-81
2023/04/27 07:19:02;;;;;;;5.87;4.47;;;13.40;99.90;;;;;;5059072;28;20199;-81
2023/04/27 07:21:30;;;;;;;7.57;4.80;;;13.50;99.90;;;;;;5041735;28;20271;-82
2023/04/27 07:23:57;;;;;;;7.13;4.97;;;13.90;99.90;;;;;;5059620;28;20198;-82
2023/04/27 07:26:25;;;;;;;5.37;4.60;;;14.20;99.90;;;;;;5043540;28;20274;-81
2023/04/27 07:28:52;;;;;;;7.07;4.80;;;14.50;99.90;;;;;;5051424;28;20199;-81
2023/04/27 07:31:19;;;;;;;4.50;4.07;;;14.70;99.90;;;;;;5042052;28;20227;-81
2023/04/27 07:33:46;;;;;;;5.50;4.57;;;15.00;99.90;;;;;;5053854;28;20210;-84
2023/04/27 07:36:13;;;;;;;5.63;4.27;;;15.20;99.90;;;;;;5061825;28;20290;-81
2023/04/27 07:38:40;;;;;;;7.67;4.43;;;15.10;99.90;;;;;;5041487;28;20256;-81
2023/04/27 07:41:07;;;;;;;8.77;4.20;;;15.30;99.90;;;;;;5058210;28;20205;-81
2023/04/27 07:43:36;;;;;;;6.73;3.97;;;15.80;99.90;;;;;;5057777;28;20219;-82
2023/04/27 07:46:03;;;;;;;6.10;3.87;;;16.20;99.90;;;;;;5040530;28;20221;-82
2023/04/27 07:48:31;;;;;;;5.50;3.57;;;16.60;99.90;;;;;;5045062;28;20199;-82
2023/04/27 07:50:57;;;;;;;4.70;3.90;;;17.00;99.90;;;;;;5061735;28;20282;-83
2023/04/27 07:53:25;;;;;;;3.83;3.23;;;17.10;99.90;;;;;;5060762;28;20195;-81
2023/04/27 07:55:52;;;;;;;4.50;4.10;;;17.40;99.90;;;;;;5044663;28;20243;-85
2023/04/27 07:58:20;;;;;;;5.70;3.73;;;17.30;99.90;;;;;;5044819;28;20208;-85
2023/04/27 08:00:48;;;;;;;6.43;3.73;;;17.10;99.90;;;;;;5046862;28;20219;-84
2023/04/27 08:03:15;;;;;;;5.97;3.87;;;17.10;99.90;;;;;;5044850;28;20279;-85
2023/04/27 08:05:42;;;;;;;6.37;3.73;;;16.90;99.90;;;;;;5037396;28;20196;-84
2023/04/27 08:08:09;;;;;;;6.83;3.93;;;17.00;99.90;;;;;;5070221;28;20196;-84
2023/04/27 08:10:37;;;;;;;5.67;4.03;;;16.70;99.90;;;;;;5053747;28;20200;-83
2023/04/27 08:13:04;;;;;;;5.43;3.60;;;16.70;99.90;;;;;;5033898;28;20776;-82
2023/04/27 08:15:30;;;;;;;5.20;3.97;;;16.70;99.90;;;;;;5052983;28;20205;-84
2023/04/27 08:18:08;;;;;;;4.37;3.90;;;17.00;99.90;;;;;;5049014;28;20220;-84
2023/04/27 08:20:38;;;;;;;5.30;3.73;;;17.20;99.90;;;;;;5055316;28;20664;-82
2023/04/27 08:23:04;;;;;;;6.40;3.93;;;17.60;99.90;;;;;;5036042;28;20226;-83
2023/04/27 08:25:32;;;;;;;3.77;3.37;;;17.80;99.90;;;;;;5036216;28;20257;-82
2023/04/27 08:27:59;;;;;;;4.73;3.70;;;18.20;99.90;;;;;;5040506;28;20229;-82
2023/04/27 08:30:26;;;;;;;7.27;4.13;;;18.30;99.90;;;;;;5036005;28;20271;-82
2023/04/27 08:32:53;;;;;;;5.63;3.67;;;18.50;99.90;;;;;;5035779;28;20697;-81
2023/04/27 08:35:21;;;;;;;4.83;3.67;;;18.60;99.90;;;;;;5058234;28;20261;-82
2023/04/27 08:37:48;;;;;;;5.97;3.43;;;19.10;99.90;;;;;;5032588;28;20251;-82
2023/04/27 08:40:15;;;;;;;4.27;3.87;;;19.40;99.90;;;;;;5036038;28;20205;-82
2023/04/27 08:42:54;;;;;;;6.33;4.37;;;19.70;99.90;;;;;;5035512;28;20223;-82
2023/04/27 08:45:22;;;;;;;5.40;3.73;;;19.60;99.90;;;;;;5035241;28;20203;-82
2023/04/27 08:47:50;;;;;;;5.63;3.57;;;19.90;99.90;;;;;;5035982;28;20219;-82
2023/04/27 08:50:17;;;;;;;6.00;4.07;;;19.70;99.90;;;;;;5035871;28;20195;-82
2023/04/27 08:52:46;;;;;;;6.23;3.83;;;19.70;99.90;;;;;;5035381;28;20675;-82
2023/04/27 08:55:13;;;;;;;5.60;3.63;;;19.30;99.90;;;;;;5032481;28;20291;-82
2023/04/27 08:57:40;;;;;;;5.80;3.80;;;19.40;99.90;;;;;;5053043;28;20796;-82
2023/04/27 09:00:12;;;;;;;4.03;3.63;;;19.30;99.90;;;;;;5035681;28;20199;-82
2023/04/27 09:02:45;;;;;;;4.50;3.83;;;19.10;99.90;;;;;;5052909;28;20306;-82
2023/04/27 09:05:17;;;;;;;5.27;3.73;;;19.00;99.90;;;;;;5046531;28;20188;-82
2023/04/27 09:07:56;;;;;;;6.70;3.40;;;18.80;99.90;;;;;;5050758;28;20273;-82
2023/04/27 09:10:23;;;;;;;5.90;3.47;;;18.90;99.90;;;;;;5029789;28;20227;-82
2023/04/27 09:13:00;;;;;;;4.90;3.37;;;19.30;99.90;;;;;;5033089;28;20695;-82
2023/04/27 09:15:28;;;;;;;4.00;3.60;;;19.60;99.90;;;;;;5035237;28;20268;-82
2023/04/27 09:17:56;;;;;;;5.50;3.77;;;20.10;99.90;;;;;;5035144;28;20225;-82
2023/04/27 09:20:23;;;;;;;4.80;3.50;;;20.40;99.90;;;;;;5034995;28;20294;-83
2023/04/27 09:22:54;;;;;;;5.97;3.80;;;20.50;99.90;;;;;;5034847;28;20211;-83
2023/04/27 09:25:26;;;;;;;5.13;3.30;;;20.50;99.90;;;;;;5052929;28;20615;-82
2023/04/27 09:27:52;;;;;;;3.90;3.40;;;20.40;99.90;;;;;;5057563;28;20215;-81
2023/04/27 09:30:20;;;;;;;6.93;3.27;;;20.70;99.90;;;;;;5026979;28;20624;-83
2023/04/27 09:32:54;;;;;;;3.70;2.90;;;20.60;99.30;;;;;;5034682;28;20553;-83
2023/04/27 09:35:23;;;;;;;4.90;3.30;;;20.60;98.90;;;;;;5039168;28;20207;-83
2023/04/27 09:37:52;;;;;;;7.27;3.57;;;20.80;99.90;;;;;;5034655;28;20246;-82
2023/04/27 09:40:22;;;;;;;4.70;3.30;;;20.80;99.90;;;;;;5043587;28;20269;-83
2023/04/27 09:42:49;;;;;;;3.30;3.00;;;21.20;99.90;;;;;;5033603;28;20632;-83
2023/04/27 09:45:17;;;;;;;4.77;3.00;;;21.20;98.80;;;;;;5032935;28;20202;-83
2023/04/27 09:47:44;;;;;;;6.77;3.80;;;21.50;99.30;;;;;;5033990;28;20306;-83
2023/04/27 09:50:13;;;;;;;5.87;3.73;;;21.40;99.70;;;;;;5034672;28;20203;-83
2023/04/27 09:52:40;;;;;;;4.70;3.40;;;21.30;97.50;;;;;;5051838;28;20670;-82
2023/04/27 09:55:11;;;;;;;4.93;3.20;;;21.40;98.30;;;;;;5052287;28;20210;-83
2023/04/27 09:57:45;;;;;;;3.60;3.10;;;21.70;98.40;;;;;;5034148;28;20281;-83
2023/04/27 10:00:26;;;;;;;4.77;3.20;;;21.80;98.10;;;;;;5034401;28;20206;-83
2023/04/27 10:03:06;;;;;;;6.17;3.10;;;21.40;97.40;;;;;;5051750;28;20211;-83
2023/04/27 10:06:22;;;;;;;5.07;3.07;;;21.30;97.90;;;;;;5052404;28;20199;-84
2023/04/27 10:08:50;;;;;;;3.50;3.03;;;21.30;97.20;;;;;;4955990;28;20206;-83
2023/04/27 10:11:19;;;;;;;3.67;3.00;;;21.50;97.90;;;;;;5041056;28;20214;-83
2023/04/27 10:13:52;;;;;;;3.47;3.00;;;21.50;96.90;;;;;;5052849;28;20187;-83
2023/04/27 10:16:20;;;;;;;4.70;3.50;;;21.50;98.00;;;;;;5034566;28;20220;-82
2023/04/27 10:18:52;;;;;;;5.23;3.10;;;21.20;98.90;;;;;;5056609;28;20198;-82
2023/04/27 10:21:19;;;;;;;4.47;3.53;;;21.30;98.90;;;;;;5056900;28;20741;-82
2023/04/27 10:23:47;;;;;;;5.37;3.90;;;20.90;98.30;;;;;;5051057;28;20226;-82
2023/04/27 10:26:23;;;;;;;4.80;3.40;;;20.70;99.10;;;;;;5039635;28;20218;-82
2023/04/27 10:28:58;;;;;;;5.00;3.93;;;20.60;97.50;;;;;;5056725;28;20207;-82
2023/04/27 10:31:28;;;;;;;5.20;3.40;;;20.30;99.20;;;;;;5051758;28;20203;-82
2023/04/27 10:34:06;;;;;;;3.90;3.07;;;20.20;99.10;;;;;;5054041;28;20286;-82
2023/04/27 10:36:37;;;;;;;4.83;3.50;;;20.20;99.40;;;;;;5035565;28;20269;-82
2023/04/27 10:39:14;;;;;;;3.80;3.30;;;20.20;99.30;;;;;;5051745;28;20199;-83
2023/04/27 10:41:51;;;;;;;5.87;3.23;;;20.20;99.90;;;;;;5034339;28;20671;-83
2023/04/27 10:44:19;;;;;;;5.30;3.40;;;20.30;98.70;;;;;;5051492;28;20210;-84
2023/04/27 10:46:53;;;;;;;3.40;3.10;;;20.20;99.30;;;;;;5047198;28;20211;-82
2023/04/27 10:49:19;;;;;;;3.73;3.20;;;20.10;98.20;;;;;;5020818;28;20195;-82
2023/04/27 10:51:46;;;;;;;4.33;3.53;;;20.10;98.30;;;;;;5031952;28;20215;-85
2023/04/27 10:54:14;;;;;;;4.03;3.40;;;19.90;97.70;;;;;;5028273;28;20231;-82
2023/04/27 10:56:41;;;;;;;3.93;2.87;;;19.70;98.70;;;;;;5025193;28;20286;-82
2023/04/27 10:59:09;;;;;;;5.10;3.23;;;19.60;99.20;;;;;;5043654;28;20194;-84
2023/04/27 11:01:37;;;;;;;2.90;2.53;;;19.50;99.20;;;;;;5054144;28;20206;-83
2023/04/27 11:04:04;;;;;;;3.93;3.20;;;19.40;99.90;;;;;;5052176;28;20281;-83
2023/04/27 11:06:32;;;;;;;4.27;3.23;;;19.30;98.70;;;;;;5051332;28;20710;-84
2023/04/27 11:08:59;;;;;;;3.83;3.00;;;19.30;98.70;;;;;;5033840;28;20266;-84
2023/04/27 11:11:26;;;;;;;4.03;2.67;;;19.30;99.30;;;;;;5033990;28;20269;-83
2023/04/27 11:13:54;;;;;;;4.87;3.30;;;19.60;99.80;;;;;;5033660;28;20195;-83
2023/04/27 11:16:23;;;;;;;5.50;3.00;;;19.80;99.10;;;;;;5051747;28;20281;-83
2023/04/27 11:18:50;;;;;;;3.60;2.77;;;19.90;98.60;;;;;;5051635;28;20199;-83
2023/04/27 11:21:19;;;;;;;3.10;2.80;;;20.20;99.50;;;;;;5050578;28;20254;-84
2023/04/27 11:23:46;;;;;;;3.00;2.70;;;20.30;99.90;;;;;;5036822;28;20703;-83
2023/04/27 11:26:15;;;;;;;2.73;2.53;;;20.60;99.10;;;;;;5037208;28;20230;-84
2023/04/27 11:28:42;;;;;;;3.17;2.47;;;20.70;98.00;;;;;;5055510;28;20192;-83
2023/04/27 11:31:10;;;;;;;5.03;2.77;;;20.70;98.70;;;;;;5037172;28;20199;-84
2023/04/27 11:33:39;;;;;;;3.20;2.47;;;20.60;98.60;;;;;;5036894;28;20208;-84
2023/04/27 11:36:16;;;;;;;3.60;2.70;;;20.70;98.50;;;;;;5054562;28;20219;-84
2023/04/27 11:38:43;;;;;;;4.40;2.60;;;20.70;98.50;;;;;;5061807;28;20277;-84
2023/04/27 11:41:09;;;;;;;2.43;2.20;;;20.80;98.90;;;;;;5037137;28;20264;-84
2023/04/27 11:43:40;;;;;;;4.03;2.33;;;20.90;97.50;;;;;;5037529;28;20269;-83
2023/04/27 11:46:09;;;;;;;2.63;2.30;;;21.00;97.40;;;;;;5037001;28;20219;-84
2023/04/27 11:48:39;;;;;;;2.40;2.20;;;21.00;97.50;;;;;;5035736;28;20558;-84
2023/04/27 11:51:06;;;;;;;3.40;2.40;;;21.00;97.90;;;;;;5030583;28;20222;-83
2023/04/27 11:53:35;;;;;;;2.67;2.37;;;20.60;96.80;;;;;;5054078;28;20198;-84
2023/04/27 11:56:04;;;;;;;2.47;2.20;;;20.30;97.10;;;;;;5053294;28;20246;-83
2023/04/27 11:58:33;;;;;;;1.90;1.80;;;20.50;97.70;;;;;;5036769;28;20252;-83
2023/04/27 12:01:00;;;;;;;2.20;2.00;;;20.60;97.00;;;;;;5036965;28;20253;-83
2023/04/27 12:03:29;;;;;;;2.57;2.17;;;20.70;97.40;;;;;;5060987;28;20211;-83
2023/04/27 12:05:57;;;;;;;2.03;1.83;;;20.80;97.80;;;;;;5039197;28;20190;-84
2023/04/27 12:08:25;;;;;;;1.90;1.80;;;21.00;97.40;;;;;;5058547;28;20195;-83
2023/04/27 12:10:52;;;;;;;2.67;2.20;;;21.20;96.40;;;;;;5037218;28;20230;-83
2023/04/27 12:13:18;;;;;;;2.13;1.93;;;21.30;97.00;;;;;;5037034;28;20249;-83
2023/04/27 12:15:45;;;;;;;3.90;2.57;;;21.30;96.60;;;;;;5036787;28;20203;-83
2023/04/27 12:18:12;;;;;;;3.80;2.60;;;21.10;96.40;;;;;;5037421;28;20204;-83
2023/04/27 12:20:39;;;;;;;3.20;2.77;;;20.80;97.30;;;;;;5037246;28;20285;-83
2023/04/27 12:23:07;;;;;;;3.53;2.50;;;20.70;97.20;;;;;;5032065;28;20223;-83
2023/04/27 12:25:35;;;;;;;2.87;2.43;;;20.60;98.60;;;;;;5035320;28;20253;-82
2023/04/27 12:28:02;;;;;;;3.55;2.53;;;20.50;98.00;;;;;;5035857;28;20452;-82
2023/04/27 12:30:29;;;;;;;3.42;2.45;;;20.50;97.40;;;;;;5035412;28;20497;-82
2023/04/27 12:32:58;;;;;;;4.00;2.60;;;20.40;98.40;;;;;;5036216;28;20294;-83
2023/04/27 12:35:25;;;;;;;2.80;2.50;;;20.40;98.00;;;;;;5061578;28;20203;-82
2023/04/27 12:37:51;;;;;;;2.57;2.37;;;20.60;98.00;;;;;;5035468;28;20718;-82
2023/04/27 12:40:22;;;;;;;3.03;2.50;;;20.60;96.80;;;;;;5054058;28;20935;-81
2023/04/27 12:42:49;;;;;;;2.60;2.40;;;20.60;97.70;;;;;;5035810;28;20204;-82
2023/04/27 12:45:15;;;;;;;2.67;2.47;;;20.70;97.40;;;;;;5036118;28;20215;-80
2023/04/27 12:47:42;;;;;;;3.90;2.37;;;20.80;97.20;;;;;;5035772;28;20285;-81